sensor_id;sensor_type;location;lat;lon;timestamp;temperature;humidity
44047;DHT22;29713;-33.888;151.150;2022-08-11T00:01:57;14.00;99.90
44047;DHT22;29713;-33.888;151.150;2022-08-11T00:04:27;14.10;99.90
44047;DHT22;29713;-33.888;151.150;2022-08-11T00:07:03;14.20;99.90
44047;DHT22;29713;-33.888;151.150;2022-08-11T00:09:35;14.20;99.90
44047;DHT22;29713;-33.888;151.150;2022-08-11T00:12:04;14.10;99.90
44047;DHT22;29713;-33.888;151.150;2022-08-11T00:14:38;14.10;99.90
44047;DHT22;29713;-33.888;151.150;2022-08-11T00:17:07;14.20;99.90
44047;DHT22;29713;-33.888;151.150;2022-08-11T00:19:42;14.20;99.90
44047;DHT22;29713;-33.888;151.150;2022-08-11T00:22:10;14.30;99.90
44047;DHT22;29713;-33.888;151.150;2022-08-11T00:24:39;14.40;99.90
44047;DHT22;29713;-33.888;151.150;2022-08-11T00:27:07;14.50;99.90
44047;DHT22;29713;-33.888;151.150;2022-08-11T00:29:35;14.50;99.90
44047;DHT22;29713;-33.888;151.150;2022-08-11T00:32:05;14.50;99.90
44047;DHT22;29713;-33.888;151.150;2022-08-11T00:34:36;14.60;99.90
44047;DHT22;29713;-33.888;151.150;2022-08-11T00:37:09;14.70;99.90
44047;DHT22;29713;-33.888;151.150;2022-08-11T00:39:47;14.70;99.90
44047;DHT22;29713;-33.888;151.150;2022-08-11T00:47:38;14.80;99.90
44047;DHT22;29713;-33.888;151.150;2022-08-11T00:53:32;14.70;99.90
44047;DHT22;29713;-33.888;151.150;2022-08-11T00:59:13;14.70;99.90
44047;DHT22;29713;-33.888;151.150;2022-08-11T01:19:33;15.10;99.90
44047;DHT22;29713;-33.888;151.150;2022-08-11T01:24:50;15.10;99.90
44047;DHT22;29713;-33.888;151.150;2022-08-11T01:27:33;15.10;99.90
44047;DHT22;29713;-33.888;151.150;2022-08-11T01:42:04;15.20;99.90
44047;DHT22;29713;-33.888;151.150;2022-08-11T01:47:16;15.50;99.90
44047;DHT22;29713;-33.888;151.150;2022-08-11T02:04:55;16.80;99.90
44047;DHT22;29713;-33.888;151.150;2022-08-11T02:08:17;16.70;99.90
44047;DHT22;29713;-33.888;151.150;2022-08-11T02:15:46;16.70;99.90
44047;DHT22;29713;-33.888;151.150;2022-08-11T02:18:35;16.80;99.90
44047;DHT22;29713;-33.888;151.150;2022-08-11T02:21:37;17.00;99.90
44047;DHT22;29713;-33.888;151.150;2022-08-11T02:24:33;17.30;99.90
44047;DHT22;29713;-33.888;151.150;2022-08-11T02:27:22;17.50;99.90
44047;DHT22;29713;-33.888;151.150;2022-08-11T02:30:12;17.60;99.90
44047;DHT22;29713;-33.888;151.150;2022-08-11T02:33:19;17.50;99.90
44047;DHT22;29713;-33.888;151.150;2022-08-11T02:35:54;17.50;99.90
44047;DHT22;29713;-33.888;151.150;2022-08-11T02:41:42;17.30;99.90
44047;DHT22;29713;-33.888;151.150;2022-08-11T03:02:38;17.50;99.90
44047;DHT22;29713;-33.888;151.150;2022-08-11T03:13:28;18.30;99.90
44047;DHT22;29713;-33.888;151.150;2022-08-11T03:16:32;18.40;99.90
44047;DHT22;29713;-33.888;151.150;2022-08-11T03:19:15;18.40;99.90
44047;DHT22;29713;-33.888;151.150;2022-08-11T03:30:06;18.10;99.90
44047;DHT22;29713;-33.888;151.150;2022-08-11T03:35:41;18.00;99.90
44047;DHT22;29713;-33.888;151.150;2022-08-11T03:38:14;18.10;99.90
44047;DHT22;29713;-33.888;151.150;2022-08-11T03:41:33;18.00;99.90
44047;DHT22;29713;-33.888;151.150;2022-08-11T03:47:38;17.90;99.90
44047;DHT22;29713;-33.888;151.150;2022-08-11T03:50:11;18.00;99.90
44047;DHT22;29713;-33.888;151.150;2022-08-11T03:53:08;18.10;99.90
44047;DHT22;29713;-33.888;151.150;2022-08-11T04:01:37;18.00;99.90
44047;DHT22;29713;-33.888;151.150;2022-08-11T04:13:12;18.00;99.90
44047;DHT22;29713;-33.888;151.150;2022-08-11T04:24:58;17.80;99.90
44047;DHT22;29713;-33.888;151.150;2022-08-11T04:27:48;17.80;99.90
44047;DHT22;29713;-33.888;151.150;2022-08-11T04:36:48;17.70;99.90
44047;DHT22;29713;-33.888;151.150;2022-08-11T04:51:43;17.30;99.90
44047;DHT22;29713;-33.888;151.150;2022-08-11T05:16:23;17.00;99.90
44047;DHT22;29713;-33.888;151.150;2022-08-11T05:19:21;17.00;99.90
44047;DHT22;29713;-33.888;151.150;2022-08-11T05:22:09;16.90;99.90
44047;DHT22;29713;-33.888;151.150;2022-08-11T05:30:41;16.90;99.90
44047;DHT22;29713;-33.888;151.150;2022-08-11T05:39:52;16.90;99.90
44047;DHT22;29713;-33.888;151.150;2022-08-11T05:42:47;16.90;99.90
44047;DHT22;29713;-33.888;151.150;2022-08-11T05:45:34;16.80;99.90
44047;DHT22;29713;-33.888;151.150;2022-08-11T05:48:20;16.80;99.90
44047;DHT22;29713;-33.888;151.150;2022-08-11T05:51:06;16.80;99.90
44047;DHT22;29713;-33.888;151.150;2022-08-11T05:53:56;16.70;99.90
44047;DHT22;29713;-33.888;151.150;2022-08-11T05:56:55;16.70;99.90
44047;DHT22;29713;-33.888;151.150;2022-08-11T05:59:24;16.70;99.90
44047;DHT22;29713;-33.888;151.150;2022-08-11T06:02:04;16.70;99.90
44047;DHT22;29713;-33.888;151.150;2022-08-11T06:04:33;16.60;99.90
44047;DHT22;29713;-33.888;151.150;2022-08-11T06:07:03;16.60;99.90
44047;DHT22;29713;-33.888;151.150;2022-08-11T06:09:37;16.70;99.90
44047;DHT22;29713;-33.888;151.150;2022-08-11T06:12:22;16.70;99.90
44047;DHT22;29713;-33.888;151.150;2022-08-11T06:14:55;16.70;99.90
44047;DHT22;29713;-33.888;151.150;2022-08-11T06:17:24;16.70;99.90
44047;DHT22;29713;-33.888;151.150;2022-08-11T06:20:06;16.70;99.90
44047;DHT22;29713;-33.888;151.150;2022-08-11T06:22:56;16.60;99.90
44047;DHT22;29713;-33.888;151.150;2022-08-11T06:25:31;16.60;99.90
44047;DHT22;29713;-33.888;151.150;2022-08-11T06:28:06;16.60;99.90
44047;DHT22;29713;-33.888;151.150;2022-08-11T06:30:37;16.60;99.90
44047;DHT22;29713;-33.888;151.150;2022-08-11T06:33:30;16.60;99.90
44047;DHT22;29713;-33.888;151.150;2022-08-11T06:41:07;16.50;99.90
44047;DHT22;29713;-33.888;151.150;2022-08-11T06:46:42;16.40;99.90
44047;DHT22;29713;-33.888;151.150;2022-08-11T06:49:12;16.30;99.90
44047;DHT22;29713;-33.888;151.150;2022-08-11T06:52:10;16.30;99.90
44047;DHT22;29713;-33.888;151.150;2022-08-11T06:54:51;16.30;99.90
44047;DHT22;29713;-33.888;151.150;2022-08-11T06:57:36;16.20;99.90
44047;DHT22;29713;-33.888;151.150;2022-08-11T07:00:22;16.20;99.90
44047;DHT22;29713;-33.888;151.150;2022-08-11T07:03:10;16.10;99.90
44047;DHT22;29713;-33.888;151.150;2022-08-11T07:06:03;16.10;99.90
44047;DHT22;29713;-33.888;151.150;2022-08-11T07:12:08;16.10;99.90
44047;DHT22;29713;-33.888;151.150;2022-08-11T07:15:02;16.00;99.90
44047;DHT22;29713;-33.888;151.150;2022-08-11T07:17:53;16.00;99.90
44047;DHT22;29713;-33.888;151.150;2022-08-11T07:20:43;16.00;99.90
44047;DHT22;29713;-33.888;151.150;2022-08-11T07:23:33;15.90;99.90
44047;DHT22;29713;-33.888;151.150;2022-08-11T07:26:21;15.90;99.90
44047;DHT22;29713;-33.888;151.150;2022-08-11T07:29:10;15.90;99.90
44047;DHT22;29713;-33.888;151.150;2022-08-11T07:31:48;15.90;99.90
44047;DHT22;29713;-33.888;151.150;2022-08-11T07:34:27;15.90;99.90
44047;DHT22;29713;-33.888;151.150;2022-08-11T07:36:59;15.90;99.90
44047;DHT22;29713;-33.888;151.150;2022-08-11T07:39:31;15.90;99.90
44047;DHT22;29713;-33.888;151.150;2022-08-11T07:42:06;15.90;99.90
44047;DHT22;29713;-33.888;151.150;2022-08-11T07:44:35;15.80;99.90
44047;DHT22;29713;-33.888;151.150;2022-08-11T07:47:22;15.80;99.90
44047;DHT22;29713;-33.888;151.150;2022-08-11T07:50:09;15.80;99.90
44047;DHT22;29713;-33.888;151.150;2022-08-11T07:52:55;15.80;99.90
44047;DHT22;29713;-33.888;151.150;2022-08-11T07:55:26;15.70;99.90
44047;DHT22;29713;-33.888;151.150;2022-08-11T07:57:57;15.70;99.90
44047;DHT22;29713;-33.888;151.150;2022-08-11T08:00:56;15.70;99.90
44047;DHT22;29713;-33.888;151.150;2022-08-11T08:03:42;15.70;99.90
44047;DHT22;29713;-33.888;151.150;2022-08-11T08:06:29;15.70;99.90
44047;DHT22;29713;-33.888;151.150;2022-08-11T08:09:18;15.70;99.90
44047;DHT22;29713;-33.888;151.150;2022-08-11T08:12:04;15.70;99.90
44047;DHT22;29713;-33.888;151.150;2022-08-11T08:14:52;15.70;99.90
44047;DHT22;29713;-33.888;151.150;2022-08-11T08:17:40;15.70;99.90
44047;DHT22;29713;-33.888;151.150;2022-08-11T08:20:23;15.70;99.90
44047;DHT22;29713;-33.888;151.150;2022-08-11T08:22:57;15.60;99.90
44047;DHT22;29713;-33.888;151.150;2022-08-11T08:25:33;15.60;99.90
44047;DHT22;29713;-33.888;151.150;2022-08-11T08:28:05;15.60;99.90
44047;DHT22;29713;-33.888;151.150;2022-08-11T08:30:33;15.70;99.90
44047;DHT22;29713;-33.888;151.150;2022-08-11T08:33:29;15.60;99.90
44047;DHT22;29713;-33.888;151.150;2022-08-11T08:36:01;15.60;99.90
44047;DHT22;29713;-33.888;151.150;2022-08-11T08:38:51;15.60;99.90
44047;DHT22;29713;-33.888;151.150;2022-08-11T08:41:28;15.60;99.90
44047;DHT22;29713;-33.888;151.150;2022-08-11T08:44:00;15.60;99.90
44047;DHT22;29713;-33.888;151.150;2022-08-11T08:46:46;15.60;99.90
44047;DHT22;29713;-33.888;151.150;2022-08-11T08:49:18;15.60;99.90
44047;DHT22;29713;-33.888;151.150;2022-08-11T08:51:53;15.60;99.90
44047;DHT22;29713;-33.888;151.150;2022-08-11T08:54:37;15.60;99.90
44047;DHT22;29713;-33.888;151.150;2022-08-11T08:57:07;15.60;99.90
44047;DHT22;29713;-33.888;151.150;2022-08-11T08:59:40;15.60;99.90
44047;DHT22;29713;-33.888;151.150;2022-08-11T09:02:08;15.60;99.90
44047;DHT22;29713;-33.888;151.150;2022-08-11T09:04:40;15.60;99.90
44047;DHT22;29713;-33.888;151.150;2022-08-11T09:07:12;15.60;99.90
44047;DHT22;29713;-33.888;151.150;2022-08-11T09:09:45;15.60;99.90
44047;DHT22;29713;-33.888;151.150;2022-08-11T09:12:14;15.60;99.90
44047;DHT22;29713;-33.888;151.150;2022-08-11T09:14:44;15.60;99.90
44047;DHT22;29713;-33.888;151.150;2022-08-11T09:17:41;15.60;99.90
44047;DHT22;29713;-33.888;151.150;2022-08-11T09:20:17;15.60;99.90
44047;DHT22;29713;-33.888;151.150;2022-08-11T09:22:47;15.60;99.90
44047;DHT22;29713;-33.888;151.150;2022-08-11T09:25:33;15.50;99.90
44047;DHT22;29713;-33.888;151.150;2022-08-11T09:28:20;15.50;99.90
44047;DHT22;29713;-33.888;151.150;2022-08-11T09:30:50;15.50;99.90
44047;DHT22;29713;-33.888;151.150;2022-08-11T09:33:23;15.40;99.90
44047;DHT22;29713;-33.888;151.150;2022-08-11T09:35:52;15.40;99.90
44047;DHT22;29713;-33.888;151.150;2022-08-11T09:38:21;15.40;99.90
44047;DHT22;29713;-33.888;151.150;2022-08-11T09:41:09;15.30;99.90
44047;DHT22;29713;-33.888;151.150;2022-08-11T09:43:42;15.30;99.90
44047;DHT22;29713;-33.888;151.150;2022-08-11T09:46:29;15.30;99.90
44047;DHT22;29713;-33.888;151.150;2022-08-11T09:49:00;15.20;99.90
44047;DHT22;29713;-33.888;151.150;2022-08-11T09:51:31;15.20;99.90
44047;DHT22;29713;-33.888;151.150;2022-08-11T09:54:03;15.20;99.90
44047;DHT22;29713;-33.888;151.150;2022-08-11T09:56:34;15.20;99.90
44047;DHT22;29713;-33.888;151.150;2022-08-11T09:59:21;15.20;99.90
44047;DHT22;29713;-33.888;151.150;2022-08-11T10:01:56;15.20;99.90
44047;DHT22;29713;-33.888;151.150;2022-08-11T10:07:02;15.20;99.90
44047;DHT22;29713;-33.888;151.150;2022-08-11T10:13:00;15.20;99.90
44047;DHT22;29713;-33.888;151.150;2022-08-11T10:15:30;15.20;99.90
44047;DHT22;29713;-33.888;151.150;2022-08-11T10:18:10;15.20;99.90
44047;DHT22;29713;-33.888;151.150;2022-08-11T10:24:06;15.30;99.90
44047;DHT22;29713;-33.888;151.150;2022-08-11T10:26:53;15.20;99.90
44047;DHT22;29713;-33.888;151.150;2022-08-11T10:32:09;15.20;99.90
44047;DHT22;29713;-33.888;151.150;2022-08-11T10:34:56;15.20;99.90
44047;DHT22;29713;-33.888;151.150;2022-08-11T10:37:25;15.20;99.90
44047;DHT22;29713;-33.888;151.150;2022-08-11T10:39:56;15.20;99.90
44047;DHT22;29713;-33.888;151.150;2022-08-11T10:42:24;15.20;99.90
44047;DHT22;29713;-33.888;151.150;2022-08-11T10:45:09;15.20;99.90
44047;DHT22;29713;-33.888;151.150;2022-08-11T10:47:56;15.20;99.90
44047;DHT22;29713;-33.888;151.150;2022-08-11T10:50:24;15.20;99.90
44047;DHT22;29713;-33.888;151.150;2022-08-11T10:53:10;15.20;99.90
44047;DHT22;29713;-33.888;151.150;2022-08-11T10:55:58;15.20;99.90
44047;DHT22;29713;-33.888;151.150;2022-08-11T10:58:44;15.20;99.90
44047;DHT22;29713;-33.888;151.150;2022-08-11T11:03:57;15.20;99.90
44047;DHT22;29713;-33.888;151.150;2022-08-11T11:06:32;15.20;99.90
44047;DHT22;29713;-33.888;151.150;2022-08-11T11:09:06;15.20;99.90
44047;DHT22;29713;-33.888;151.150;2022-08-11T11:11:37;15.20;99.90
44047;DHT22;29713;-33.888;151.150;2022-08-11T11:14:27;15.20;99.90
44047;DHT22;29713;-33.888;151.150;2022-08-11T11:17:34;15.20;99.90
44047;DHT22;29713;-33.888;151.150;2022-08-11T11:21:16;15.10;99.90
44047;DHT22;29713;-33.888;151.150;2022-08-11T11:34:29;15.10;99.90
44047;DHT22;29713;-33.888;151.150;2022-08-11T11:37:01;15.10;99.90
44047;DHT22;29713;-33.888;151.150;2022-08-11T11:39:31;15.10;99.90
44047;DHT22;29713;-33.888;151.150;2022-08-11T11:42:08;15.10;99.90
44047;DHT22;29713;-33.888;151.150;2022-08-11T11:44:42;15.10;99.90
44047;DHT22;29713;-33.888;151.150;2022-08-11T11:47:12;15.10;99.90
44047;DHT22;29713;-33.888;151.150;2022-08-11T11:49:42;15.10;99.90
44047;DHT22;29713;-33.888;151.150;2022-08-11T11:52:15;15.00;99.90
44047;DHT22;29713;-33.888;151.150;2022-08-11T11:54:45;15.00;99.90
44047;DHT22;29713;-33.888;151.150;2022-08-11T11:57:20;15.00;99.90
44047;DHT22;29713;-33.888;151.150;2022-08-11T12:00:09;15.00;99.90
44047;DHT22;29713;-33.888;151.150;2022-08-11T12:03:07;15.00;99.90
44047;DHT22;29713;-33.888;151.150;2022-08-11T12:05:37;15.00;99.90
44047;DHT22;29713;-33.888;151.150;2022-08-11T12:08:06;15.00;99.90
44047;DHT22;29713;-33.888;151.150;2022-08-11T12:10:47;15.00;99.90
44047;DHT22;29713;-33.888;151.150;2022-08-11T12:13:16;15.00;99.90
44047;DHT22;29713;-33.888;151.150;2022-08-11T12:16:02;15.00;99.90
44047;DHT22;29713;-33.888;151.150;2022-08-11T12:18:33;15.00;99.90
44047;DHT22;29713;-33.888;151.150;2022-08-11T12:21:04;15.00;99.90
44047;DHT22;29713;-33.888;151.150;2022-08-11T12:23:36;15.00;99.90
44047;DHT22;29713;-33.888;151.150;2022-08-11T12:26:22;15.00;99.90
44047;DHT22;29713;-33.888;151.150;2022-08-11T12:29:25;15.00;99.90
44047;DHT22;29713;-33.888;151.150;2022-08-11T12:31:56;15.00;99.90
44047;DHT22;29713;-33.888;151.150;2022-08-11T12:34:26;14.90;99.90
44047;DHT22;29713;-33.888;151.150;2022-08-11T12:36:57;14.90;99.90
44047;DHT22;29713;-33.888;151.150;2022-08-11T12:39:30;14.90;99.90
44047;DHT22;29713;-33.888;151.150;2022-08-11T12:42:18;14.90;99.90
44047;DHT22;29713;-33.888;151.150;2022-08-11T12:45:11;14.90;99.90
44047;DHT22;29713;-33.888;151.150;2022-08-11T12:48:11;14.90;99.90
44047;DHT22;29713;-33.888;151.150;2022-08-11T12:51:02;14.90;99.90
44047;DHT22;29713;-33.888;151.150;2022-08-11T13:00:14;14.90;99.90
44047;DHT22;29713;-33.888;151.150;2022-08-11T13:03:01;14.90;99.90
44047;DHT22;29713;-33.888;151.150;2022-08-11T13:05:48;14.80;99.90
44047;DHT22;29713;-33.888;151.150;2022-08-11T13:08:21;14.80;99.90
44047;DHT22;29713;-33.888;151.150;2022-08-11T13:10:50;14.80;99.90
44047;DHT22;29713;-33.888;151.150;2022-08-11T13:13:37;14.80;99.90
44047;DHT22;29713;-33.888;151.150;2022-08-11T13:16:06;14.80;99.90
44047;DHT22;29713;-33.888;151.150;2022-08-11T13:18:36;14.80;99.90
44047;DHT22;29713;-33.888;151.150;2022-08-11T13:21:09;14.80;99.90
44047;DHT22;29713;-33.888;151.150;2022-08-11T13:23:38;14.80;99.90
44047;DHT22;29713;-33.888;151.150;2022-08-11T13:26:06;14.80;99.90
44047;DHT22;29713;-33.888;151.150;2022-08-11T13:28:36;14.80;99.90
44047;DHT22;29713;-33.888;151.150;2022-08-11T13:31:04;14.80;99.90
44047;DHT22;29713;-33.888;151.150;2022-08-11T13:33:41;14.80;99.90
44047;DHT22;29713;-33.888;151.150;2022-08-11T13:36:10;14.70;99.90
44047;DHT22;29713;-33.888;151.150;2022-08-11T13:38:41;14.70;99.90
44047;DHT22;29713;-33.888;151.150;2022-08-11T13:41:09;14.70;99.90
44047;DHT22;29713;-33.888;151.150;2022-08-11T13:43:56;14.70;99.90
44047;DHT22;29713;-33.888;151.150;2022-08-11T13:46:24;14.70;99.90
44047;DHT22;29713;-33.888;151.150;2022-08-11T13:48:56;14.70;99.90
44047;DHT22;29713;-33.888;151.150;2022-08-11T13:51:24;14.70;99.90
44047;DHT22;29713;-33.888;151.150;2022-08-11T13:54:10;14.70;99.90
44047;DHT22;29713;-33.888;151.150;2022-08-11T13:56:41;14.70;99.90
44047;DHT22;29713;-33.888;151.150;2022-08-11T13:59:10;14.70;99.90
44047;DHT22;29713;-33.888;151.150;2022-08-11T14:01:43;14.70;99.90
44047;DHT22;29713;-33.888;151.150;2022-08-11T14:04:22;14.70;99.90
44047;DHT22;29713;-33.888;151.150;2022-08-11T14:06:53;14.70;99.90
44047;DHT22;29713;-33.888;151.150;2022-08-11T14:09:29;14.70;99.90
44047;DHT22;29713;-33.888;151.150;2022-08-11T14:12:18;14.70;99.90
44047;DHT22;29713;-33.888;151.150;2022-08-11T14:18:29;14.60;99.90
44047;DHT22;29713;-33.888;151.150;2022-08-11T14:20:59;14.70;99.90
44047;DHT22;29713;-33.888;151.150;2022-08-11T14:23:47;14.70;99.90
44047;DHT22;29713;-33.888;151.150;2022-08-11T14:26:20;14.60;99.90
44047;DHT22;29713;-33.888;151.150;2022-08-11T14:29:00;14.60;99.90
44047;DHT22;29713;-33.888;151.150;2022-08-11T14:31:30;14.60;99.90
44047;DHT22;29713;-33.888;151.150;2022-08-11T14:34:01;14.60;99.90
44047;DHT22;29713;-33.888;151.150;2022-08-11T14:36:39;14.60;99.90
44047;DHT22;29713;-33.888;151.150;2022-08-11T14:39:14;14.60;99.90
44047;DHT22;29713;-33.888;151.150;2022-08-11T14:41:46;14.60;99.90
44047;DHT22;29713;-33.888;151.150;2022-08-11T14:44:35;14.60;99.90
44047;DHT22;29713;-33.888;151.150;2022-08-11T14:47:22;14.60;99.90
44047;DHT22;29713;-33.888;151.150;2022-08-11T14:49:52;14.60;99.90
44047;DHT22;29713;-33.888;151.150;2022-08-11T14:52:20;14.60;99.90
44047;DHT22;29713;-33.888;151.150;2022-08-11T14:54:49;14.60;99.90
44047;DHT22;29713;-33.888;151.150;2022-08-11T14:57:37;14.60;99.90
44047;DHT22;29713;-33.888;151.150;2022-08-11T15:00:07;14.60;99.90
44047;DHT22;29713;-33.888;151.150;2022-08-11T15:02:39;14.60;99.90
44047;DHT22;29713;-33.888;151.150;2022-08-11T15:05:25;14.60;99.90
44047;DHT22;29713;-33.888;151.150;2022-08-11T15:07:57;14.60;99.90
44047;DHT22;29713;-33.888;151.150;2022-08-11T15:10:25;14.50;99.90
44047;DHT22;29713;-33.888;151.150;2022-08-11T15:19:39;14.60;99.90
44047;DHT22;29713;-33.888;151.150;2022-08-11T15:22:24;14.60;99.90
44047;DHT22;29713;-33.888;151.150;2022-08-11T15:25:10;14.50;99.90
44047;DHT22;29713;-33.888;151.150;2022-08-11T15:27:39;14.50;99.90
44047;DHT22;29713;-33.888;151.150;2022-08-11T15:30:26;14.50;99.90
44047;DHT22;29713;-33.888;151.150;2022-08-11T15:33:14;14.50;99.90
44047;DHT22;29713;-33.888;151.150;2022-08-11T15:36:04;14.50;99.90
44047;DHT22;29713;-33.888;151.150;2022-08-11T15:39:02;14.50;99.90
44047;DHT22;29713;-33.888;151.150;2022-08-11T15:41:48;14.60;99.90
44047;DHT22;29713;-33.888;151.150;2022-08-11T15:44:39;14.60;99.90
44047;DHT22;29713;-33.888;151.150;2022-08-11T15:47:27;14.50;99.90
44047;DHT22;29713;-33.888;151.150;2022-08-11T15:49:58;14.50;99.90
44047;DHT22;29713;-33.888;151.150;2022-08-11T15:52:33;14.60;99.90
44047;DHT22;29713;-33.888;151.150;2022-08-11T15:55:05;14.50;99.90
44047;DHT22;29713;-33.888;151.150;2022-08-11T15:57:33;14.50;99.90
44047;DHT22;29713;-33.888;151.150;2022-08-11T16:00:19;14.40;99.90
44047;DHT22;29713;-33.888;151.150;2022-08-11T16:03:06;14.40;99.90
44047;DHT22;29713;-33.888;151.150;2022-08-11T16:05:52;14.40;99.90
44047;DHT22;29713;-33.888;151.150;2022-08-11T16:08:21;14.40;99.90
44047;DHT22;29713;-33.888;151.150;2022-08-11T16:10:52;14.40;99.90
44047;DHT22;29713;-33.888;151.150;2022-08-11T16:13:22;14.30;99.90
44047;DHT22;29713;-33.888;151.150;2022-08-11T16:15:57;14.30;99.90
44047;DHT22;29713;-33.888;151.150;2022-08-11T16:19:00;14.30;99.90
44047;DHT22;29713;-33.888;151.150;2022-08-11T16:21:34;14.30;99.90
44047;DHT22;29713;-33.888;151.150;2022-08-11T16:24:10;14.20;99.90
44047;DHT22;29713;-33.888;151.150;2022-08-11T16:26:40;14.20;99.90
44047;DHT22;29713;-33.888;151.150;2022-08-11T16:29:10;14.20;99.90
44047;DHT22;29713;-33.888;151.150;2022-08-11T16:31:40;14.20;99.90
44047;DHT22;29713;-33.888;151.150;2022-08-11T16:34:08;14.20;99.90
44047;DHT22;29713;-33.888;151.150;2022-08-11T16:36:56;14.20;99.90
44047;DHT22;29713;-33.888;151.150;2022-08-11T16:39:43;14.10;99.90
44047;DHT22;29713;-33.888;151.150;2022-08-11T16:42:11;14.10;99.90
44047;DHT22;29713;-33.888;151.150;2022-08-11T16:44:58;14.10;99.90
44047;DHT22;29713;-33.888;151.150;2022-08-11T16:47:45;14.10;99.90
44047;DHT22;29713;-33.888;151.150;2022-08-11T16:50:15;14.10;99.90
44047;DHT22;29713;-33.888;151.150;2022-08-11T16:52:43;14.10;99.90
44047;DHT22;29713;-33.888;151.150;2022-08-11T16:55:10;14.10;99.90
44047;DHT22;29713;-33.888;151.150;2022-08-11T16:57:38;14.10;99.90
44047;DHT22;29713;-33.888;151.150;2022-08-11T17:00:25;14.10;99.90
44047;DHT22;29713;-33.888;151.150;2022-08-11T17:02:54;14.10;99.90
44047;DHT22;29713;-33.888;151.150;2022-08-11T17:05:52;14.10;99.90
44047;DHT22;29713;-33.888;151.150;2022-08-11T17:08:47;14.10;99.90
44047;DHT22;29713;-33.888;151.150;2022-08-11T17:11:45;14.10;99.90
44047;DHT22;29713;-33.888;151.150;2022-08-11T17:14:39;14.10;99.90
44047;DHT22;29713;-33.888;151.150;2022-08-11T17:17:14;14.10;99.90
44047;DHT22;29713;-33.888;151.150;2022-08-11T17:19:48;14.10;99.90
44047;DHT22;29713;-33.888;151.150;2022-08-11T17:22:17;14.00;99.90
44047;DHT22;29713;-33.888;151.150;2022-08-11T17:25:04;14.00;99.90
44047;DHT22;29713;-33.888;151.150;2022-08-11T17:27:33;14.00;99.90
44047;DHT22;29713;-33.888;151.150;2022-08-11T17:30:05;14.00;99.90
44047;DHT22;29713;-33.888;151.150;2022-08-11T17:32:47;14.00;99.90
44047;DHT22;29713;-33.888;151.150;2022-08-11T17:35:41;14.00;99.90
44047;DHT22;29713;-33.888;151.150;2022-08-11T17:38:15;13.90;99.90
44047;DHT22;29713;-33.888;151.150;2022-08-11T17:40:54;14.00;99.90
44047;DHT22;29713;-33.888;151.150;2022-08-11T17:43:42;13.90;99.90
44047;DHT22;29713;-33.888;151.150;2022-08-11T17:46:29;13.90;99.90
44047;DHT22;29713;-33.888;151.150;2022-08-11T17:49:15;14.00;99.90
44047;DHT22;29713;-33.888;151.150;2022-08-11T17:51:47;14.00;99.90
44047;DHT22;29713;-33.888;151.150;2022-08-11T17:54:35;14.00;99.90
44047;DHT22;29713;-33.888;151.150;2022-08-11T17:57:23;14.00;99.90
44047;DHT22;29713;-33.888;151.150;2022-08-11T18:00:09;14.10;99.90
44047;DHT22;29713;-33.888;151.150;2022-08-11T18:02:40;14.10;99.90
44047;DHT22;29713;-33.888;151.150;2022-08-11T18:05:32;14.10;99.90
44047;DHT22;29713;-33.888;151.150;2022-08-11T18:08:04;14.10;99.90
44047;DHT22;29713;-33.888;151.150;2022-08-11T18:10:51;14.10;99.90
44047;DHT22;29713;-33.888;151.150;2022-08-11T18:13:39;14.00;99.90
44047;DHT22;29713;-33.888;151.150;2022-08-11T18:16:26;14.00;99.90
44047;DHT22;29713;-33.888;151.150;2022-08-11T18:19:11;14.00;99.90
44047;DHT22;29713;-33.888;151.150;2022-08-11T18:22:08;14.00;99.90
44047;DHT22;29713;-33.888;151.150;2022-08-11T18:25:13;14.00;99.90
44047;DHT22;29713;-33.888;151.150;2022-08-11T18:27:59;14.00;99.90
44047;DHT22;29713;-33.888;151.150;2022-08-11T18:30:47;14.00;99.90
44047;DHT22;29713;-33.888;151.150;2022-08-11T18:33:51;14.00;99.90
44047;DHT22;29713;-33.888;151.150;2022-08-11T18:36:48;14.00;99.90
44047;DHT22;29713;-33.888;151.150;2022-08-11T18:39:40;14.00;99.90
44047;DHT22;29713;-33.888;151.150;2022-08-11T18:42:27;14.00;99.90
44047;DHT22;29713;-33.888;151.150;2022-08-11T18:45:15;14.00;99.90
44047;DHT22;29713;-33.888;151.150;2022-08-11T18:48:08;14.00;99.90
44047;DHT22;29713;-33.888;151.150;2022-08-11T18:50:56;14.00;99.90
44047;DHT22;29713;-33.888;151.150;2022-08-11T18:53:45;14.00;99.90
44047;DHT22;29713;-33.888;151.150;2022-08-11T18:56:31;14.00;99.90
44047;DHT22;29713;-33.888;151.150;2022-08-11T18:59:20;14.00;99.90
44047;DHT22;29713;-33.888;151.150;2022-08-11T19:02:09;14.00;99.90
44047;DHT22;29713;-33.888;151.150;2022-08-11T19:04:57;14.00;99.90
44047;DHT22;29713;-33.888;151.150;2022-08-11T19:07:45;14.00;99.90
44047;DHT22;29713;-33.888;151.150;2022-08-11T19:10:32;13.90;99.90
44047;DHT22;29713;-33.888;151.150;2022-08-11T19:13:20;14.00;99.90
44047;DHT22;29713;-33.888;151.150;2022-08-11T19:16:06;13.90;99.90
44047;DHT22;29713;-33.888;151.150;2022-08-11T19:18:53;13.90;99.90
44047;DHT22;29713;-33.888;151.150;2022-08-11T19:21:40;13.90;99.90
44047;DHT22;29713;-33.888;151.150;2022-08-11T19:24:26;13.90;99.90
44047;DHT22;29713;-33.888;151.150;2022-08-11T19:27:13;13.90;99.90
44047;DHT22;29713;-33.888;151.150;2022-08-11T19:29:59;13.80;99.90
44047;DHT22;29713;-33.888;151.150;2022-08-11T19:32:45;13.80;99.90
44047;DHT22;29713;-33.888;151.150;2022-08-11T19:35:31;13.80;99.90
44047;DHT22;29713;-33.888;151.150;2022-08-11T19:38:18;13.80;99.90
44047;DHT22;29713;-33.888;151.150;2022-08-11T19:41:05;13.80;99.90
44047;DHT22;29713;-33.888;151.150;2022-08-11T19:43:51;13.80;99.90
44047;DHT22;29713;-33.888;151.150;2022-08-11T19:46:38;13.80;99.90
44047;DHT22;29713;-33.888;151.150;2022-08-11T19:49:24;13.80;99.90
44047;DHT22;29713;-33.888;151.150;2022-08-11T19:52:10;13.80;99.90
44047;DHT22;29713;-33.888;151.150;2022-08-11T19:54:57;13.90;99.90
44047;DHT22;29713;-33.888;151.150;2022-08-11T19:57:43;13.90;99.90
44047;DHT22;29713;-33.888;151.150;2022-08-11T20:00:29;13.90;99.90
44047;DHT22;29713;-33.888;151.150;2022-08-11T20:03:15;13.90;99.90
44047;DHT22;29713;-33.888;151.150;2022-08-11T20:06:04;13.90;99.90
44047;DHT22;29713;-33.888;151.150;2022-08-11T20:08:51;13.90;99.90